Time;durP1;ratioP1;P1;durP2;ratioP2;P2;SDS_P1;SDS_P2;PMS_P1;PMS_P2;Temp;Humidity;BMP_temperature;BMP_pressure;BME280_temperature;BME280_humidity;BME280_pressure;Samples;Min_cycle;Max_cycle;Signal;HPM_P1;HPM_P2
2023/05/30 00:00:50;;;;;;;;;5.50;4.00;;;;;18.89;46.38;101674.00;6244802;22;47013;-65
2023/05/30 00:03:17;;;;;;;;;6.25;5.00;;;;;18.88;46.50;101683.94;6245397;22;45451;-65
2023/05/30 00:05:42;;;;;;;;;4.25;3.25;;;;;18.95;46.24;101695.31;6244439;22;45259;-65
2023/05/30 00:08:07;;;;;;;;;4.25;4.25;;;;;18.95;46.67;101698.03;6239356;22;45199;-65
2023/05/30 00:10:33;;;;;;;;;5.00;4.00;;;;;18.87;46.48;101689.44;6242408;22;45393;-65
2023/05/30 00:12:59;;;;;;;;;3.75;3.00;;;;;18.98;46.64;101702.44;6244766;22;45251;-65
2023/05/30 00:15:25;;;;;;;;;3.50;3.00;;;;;18.99;46.21;101702.31;6244378;22;45280;-65
2023/05/30 00:17:52;;;;;;;;;3.00;3.00;;;;;18.90;45.97;101693.84;6242047;22;45401;-65
2023/05/30 00:20:18;;;;;;;;;3.75;2.75;;;;;18.85;45.95;101686.81;6243127;22;45923;-65
2023/05/30 00:22:43;;;;;;;;;4.75;3.00;;;;;18.83;45.97;101688.72;6243943;22;45419;-65
2023/05/30 00:25:09;;;;;;;;;4.00;3.75;;;;;18.83;46.32;101690.56;6243162;22;45470;-65
2023/05/30 00:27:34;;;;;;;;;4.00;3.75;;;;;18.89;45.96;101695.63;6245603;22;45494;-65
2023/05/30 00:29:59;;;;;;;;;6.75;2.75;;;;;18.78;45.73;101679.09;6245741;22;50223;-65
2023/05/30 00:32:25;;;;;;;;;5.00;3.50;;;;;18.85;45.85;101694.06;6243856;22;60442;-65
2023/05/30 00:34:50;;;;;;;;;3.50;2.00;;;;;18.84;46.12;101689.59;6245314;22;45330;-65
2023/05/30 00:37:16;;;;;;;;;4.75;3.00;;;;;18.90;45.96;101700.09;6245231;22;45427;-65
2023/05/30 00:39:41;;;;;;;;;4.25;2.00;;;;;18.83;46.01;101690.56;6245661;22;45411;-65
2023/05/30 00:42:07;;;;;;;;;6.00;4.25;;;;;18.85;45.53;101700.34;6245156;22;45308;-65
2023/05/30 00:44:32;;;;;;;;;5.00;4.00;;;;;18.79;45.49;101689.78;6245484;22;45402;-65
2023/05/30 00:46:58;;;;;;;;;3.50;3.50;;;;;18.81;45.34;101701.44;6245895;22;45232;-65
2023/05/30 00:49:25;;;;;;;;;3.75;3.00;;;;;18.74;45.11;101697.28;6245446;22;46072;-65
2023/05/30 00:51:51;;;;;;;;;2.75;2.75;;;;;18.63;45.44;101684.31;6245050;22;45336;-65
2023/05/30 00:54:18;;;;;;;;;4.75;4.00;;;;;18.70;45.23;101701.97;6245393;22;45453;-65
2023/05/30 00:56:43;;;;;;;;;3.00;2.75;;;;;18.62;45.61;101701.47;6245678;22;45348;-65
2023/05/30 00:59:09;;;;;;;;;4.00;3.00;;;;;18.59;45.78;101711.59;6245396;22;45476;-65
2023/05/30 01:01:35;;;;;;;;;4.00;4.00;;;;;18.52;45.60;101708.31;6242881;22;45394;-65
2023/05/30 01:04:01;;;;;;;;;5.25;4.25;;;;;18.49;45.87;101712.06;6244873;22;45425;-65
2023/05/30 01:06:30;;;;;;;;;4.00;4.00;;;;;18.50;45.85;101705.69;6245702;22;45476;-65
2023/05/30 01:08:59;;;;;;;;;4.50;4.00;;;;;18.49;45.66;101708.47;6244908;22;45328;-65
2023/05/30 01:11:51;;;;;;;;;6.00;4.50;;;;;18.51;45.71;101703.88;6245138;22;45396;-65
2023/05/30 01:15:00;;;;;;;;;3.50;3.50;;;;;18.44;45.88;101694.31;6231631;22;45330;-65
2023/05/30 01:17:46;;;;;;;;;5.50;4.25;;;;;18.45;45.65;101698.78;6244485;22;45597;-65
2023/05/30 01:20:16;;;;;;;;;6.00;6.00;;;;;18.40;45.80;101704.41;6243430;22;45413;-65
2023/05/30 01:23:00;;;;;;;;;6.50;5.00;;;;;18.39;46.21;101702.63;6246359;22;45861;-65
2023/05/30 01:25:37;;;;;;;;;3.50;3.50;;;;;18.35;46.03;101695.66;6247158;22;45279;-65
2023/05/30 01:28:12;;;;;;;;;7.75;5.00;;;;;18.33;46.38;101701.13;6246952;22;45258;-65
2023/05/30 01:30:42;;;;;;;;;4.00;3.75;;;;;18.33;46.42;101703.84;6246559;22;45971;-65
2023/05/30 01:33:09;;;;;;;;;7.25;4.50;;;;;18.37;46.46;101707.25;6245140;22;45247;-65
2023/05/30 01:35:35;;;;;;;;;5.25;4.50;;;;;18.31;46.43;101702.19;6246251;22;45243;-65
2023/05/30 01:38:00;;;;;;;;;4.50;4.50;;;;;18.31;46.45;101702.19;6246419;22;45386;-65
2023/05/30 01:40:28;;;;;;;;;5.75;4.00;;;;;18.29;46.51;101699.56;6246558;22;46179;-65
2023/05/30 01:43:25;;;;;;;;;6.25;4.25;;;;;18.38;46.60;101717.13;6247096;22;45280;-65
2023/05/30 01:46:30;;;;;;;;;4.75;4.75;;;;;18.36;46.70;101712.75;6246568;22;45414;-65
2023/05/30 01:48:58;;;;;;;;;4.50;4.25;;;;;18.29;46.60;101717.56;6246599;22;45485;-65
2023/05/30 01:51:38;;;;;;;;;5.50;3.25;;;;;18.11;46.81;101705.84;6246717;22;46183;-65
2023/05/30 01:54:06;;;;;;;;;3.75;3.75;;;;;18.12;46.72;101718.41;6246481;22;45611;-65
2023/05/30 01:56:34;;;;;;;;;5.00;5.00;;;;;18.02;46.76;101717.09;6245178;22;45487;-65
2023/05/30 01:59:02;;;;;;;;;4.25;4.25;;;;;18.03;47.20;101708.06;6246743;22;45239;-65
2023/05/30 02:01:28;;;;;;;;;3.75;3.75;;;;;18.08;47.15;101723.09;6244307;22;47066;-65
2023/05/30 02:03:54;;;;;;;;;9.00;5.25;;;;;18.09;46.81;101722.16;6246421;22;45499;-65
2023/05/30 02:06:20;;;;;;;;;5.50;4.75;;;;;18.01;47.21;101713.53;6246819;22;45259;-65
2023/05/30 02:08:45;;;;;;;;;4.50;3.75;;;;;17.91;46.92;101699.59;6246259;22;45564;-65
2023/05/30 02:11:11;;;;;;;;;8.75;6.75;;;;;17.83;47.40;101690.06;6246435;22;45386;-65
2023/05/30 02:13:36;;;;;;;;;5.50;4.25;;;;;17.99;47.37;101723.50;6246226;22;45661;-65
2023/05/30 02:16:01;;;;;;;;;6.25;4.25;;;;;17.93;47.16;101724.69;6246771;22;45371;-65
2023/05/30 02:18:27;;;;;;;;;9.00;5.75;;;;;17.90;47.11;101719.44;6245678;22;49223;-65
2023/05/30 02:20:56;;;;;;;;;7.00;6.00;;;;;17.88;47.60;101717.78;6246065;22;46121;-65
2023/05/30 02:23:21;;;;;;;;;8.00;5.25;;;;;17.80;47.12;101720.78;6246435;22;45492;-65
2023/05/30 02:25:47;;;;;;;;;4.00;4.00;;;;;17.73;47.31;101722.03;6246365;22;45557;-65
2023/05/30 02:28:12;;;;;;;;;5.75;4.25;;;;;17.65;47.44;101714.28;6245979;22;45396;-65
2023/05/30 02:30:38;;;;;;;;;5.50;5.00;;;;;17.52;47.51;101703.16;6246260;22;45292;-65
2023/05/30 02:33:03;;;;;;;;;6.00;5.75;;;;;17.56;47.69;101701.22;6246017;22;45248;-65
2023/05/30 02:35:28;;;;;;;;;5.50;4.50;;;;;17.48;48.02;101708.81;6246825;22;45387;-65
2023/05/30 02:37:54;;;;;;;;;6.50;5.00;;;;;17.35;47.82;101703.94;6245588;22;45598;-65
2023/05/30 02:40:19;;;;;;;;;6.00;4.50;;;;;17.36;47.90;101707.53;6246514;22;45420;-65
2023/05/30 02:42:45;;;;;;;;;4.75;4.50;;;;;17.29;48.23;101708.75;6246379;22;45338;-65
2023/05/30 02:45:10;;;;;;;;;5.00;5.00;;;;;17.31;47.98;101714.97;6246814;22;45331;-65
2023/05/30 02:47:35;;;;;;;;;3.50;3.50;;;;;17.28;48.59;101709.72;6246117;22;45616;-65
2023/05/30 02:50:01;;;;;;;;;8.50;6.00;;;;;17.29;48.40;101715.03;6246510;22;46016;-65
2023/05/30 02:52:26;;;;;;;;;7.25;4.25;;;;;17.16;48.56;101709.31;6246260;22;45494;-65
2023/05/30 02:54:51;;;;;;;;;7.25;5.00;;;;;17.09;48.70;101715.03;6246336;22;45233;-65
2023/05/30 02:57:19;;;;;;;;;7.00;5.25;;;;;17.06;48.71;101723.25;6246282;22;45267;-65
2023/05/30 02:59:44;;;;;;;;;6.25;6.25;;;;;17.08;48.87;101722.25;6245442;22;46126;-65
2023/05/30 03:02:10;;;;;;;;;4.75;4.00;;;;;17.07;48.98;101725.00;6246267;22;45173;-65
2023/05/30 03:04:36;;;;;;;;;8.75;5.00;;;;;17.06;48.96;101726.84;6246243;22;45411;-65
2023/05/30 03:07:02;;;;;;;;;7.00;5.00;;;;;17.07;49.14;101727.72;6246377;22;45243;-65
2023/05/30 03:09:27;;;;;;;;;8.75;7.25;;;;;17.03;49.04;101725.16;6246162;22;46420;-65
2023/05/30 03:11:53;;;;;;;;;5.75;4.50;;;;;16.98;49.20;101720.91;6245435;22;45304;-65
2023/05/30 03:14:18;;;;;;;;;7.75;4.25;;;;;17.00;49.01;101722.56;6244415;22;45331;-65
2023/05/30 03:16:43;;;;;;;;;7.25;5.75;;;;;16.99;48.97;101723.53;6245838;22;45309;-65
2023/05/30 03:19:09;;;;;;;;;5.00;4.00;;;;;16.96;48.96;101729.06;6245953;22;46315;-65
2023/05/30 03:21:36;;;;;;;;;7.50;6.25;;;;;16.88;48.89;101715.03;6245897;22;45419;-65
2023/05/30 03:24:02;;;;;;;;;4.75;4.75;;;;;16.85;49.19;101731.34;6241045;22;45388;-65
2023/05/30 03:26:27;;;;;;;;;5.00;5.00;;;;;16.82;49.26;101731.44;6243007;22;45579;-65
2023/05/30 03:28:53;;;;;;;;;7.00;5.75;;;;;16.76;49.46;101732.59;6244051;22;47120;-65
2023/05/30 03:31:18;;;;;;;;;4.75;4.75;;;;;16.72;49.14;101730.09;6243985;22;45327;-65
2023/05/30 03:33:44;;;;;;;;;8.00;6.25;;;;;16.73;49.32;101732.72;6245034;22;45269;-65
2023/05/30 03:36:10;;;;;;;;;2.25;2.00;;;;;16.67;49.17;101735.66;6245241;22;45285;-65
2023/05/30 03:38:36;;;;;;;;;4.25;4.25;;;;;16.59;49.59;101733.31;6244274;22;46481;-65
2023/05/30 03:41:01;;;;;;;;;3.75;3.75;;;;;16.54;49.56;101729.03;6244930;22;45295;-65
2023/05/30 03:43:27;;;;;;;;;6.00;4.00;;;;;16.50;49.58;101717.50;6245435;22;45504;-65
2023/05/30 03:45:52;;;;;;;;;6.00;6.00;;;;;16.56;49.49;101733.44;6243621;22;56859;-65
2023/05/30 03:48:17;;;;;;;;;12.00;5.25;;;;;16.58;49.37;101733.38;6245611;22;56223;-65
2023/05/30 03:50:43;;;;;;;;;5.75;5.75;;;;;16.57;49.66;101739.69;6246041;22;45268;-65
2023/05/30 03:53:08;;;;;;;;;5.25;5.25;;;;;16.52;49.80;101739.00;6246447;22;45385;-65
2023/05/30 03:55:33;;;;;;;;;4.75;4.50;;;;;16.42;49.69;101725.91;6245607;22;46636;-65
2023/05/30 03:57:59;;;;;;;;;6.25;4.25;;;;;16.33;49.79;101720.91;6245996;22;46065;-65
2023/05/30 04:00:24;;;;;;;;;7.50;6.25;;;;;16.40;49.97;101727.78;6245125;22;45460;-65
2023/05/30 04:02:49;;;;;;;;;5.00;4.75;;;;;16.46;50.01;101745.53;6246029;22;45778;-65
2023/05/30 04:05:15;;;;;;;;;5.00;5.00;;;;;16.48;49.93;101749.03;6246154;22;45415;-65
2023/05/30 04:07:41;;;;;;;;;4.00;2.25;;;;;16.46;49.74;101741.00;6245106;22;46070;-65
2023/05/30 04:10:06;;;;;;;;;8.75;5.00;;;;;16.56;49.82;101751.44;6245470;22;47340;-65
2023/05/30 04:12:32;;;;;;;;;3.75;3.00;;;;;16.58;49.56;101754.94;6244302;22;45342;-65
2023/05/30 04:14:57;;;;;;;;;8.50;4.25;;;;;16.57;49.69;101756.75;6245617;22;45449;-65
2023/05/30 04:17:22;;;;;;;;;4.50;4.00;;;;;16.46;49.61;101729.38;6245014;22;47161;-65
2023/05/30 04:19:48;;;;;;;;;5.25;4.75;;;;;16.55;49.70;101741.56;6246206;22;45247;-65
2023/05/30 04:22:13;;;;;;;;;4.00;4.00;;;;;16.61;49.53;101757.50;6244903;22;51640;-65
2023/05/30 04:24:38;;;;;;;;;10.75;4.00;;;;;16.62;49.31;101756.53;6246205;22;45260;-65
2023/05/30 04:27:04;;;;;;;;;5.50;4.50;;;;;16.50;49.56;101747.16;6245473;22;46015;-65
2023/05/30 04:29:29;;;;;;;;;7.50;5.00;;;;;16.43;49.69;101740.25;6245767;22;45255;-65
2023/05/30 04:31:56;;;;;;;;;6.00;5.00;;;;;16.47;49.64;101749.97;6245938;22;45264;-65
2023/05/30 04:34:22;;;;;;;;;4.25;3.75;;;;;16.40;49.73;101748.47;6245494;22;45276;-65
2023/05/30 04:36:48;;;;;;;;;9.00;5.00;;;;;16.51;49.73;101769.59;6244824;22;46107;-65
2023/05/30 04:39:13;;;;;;;;;4.00;4.00;;;;;16.46;49.41;101759.88;6245910;22;45291;-65
2023/05/30 04:41:40;;;;;;;;;5.00;5.00;;;;;16.46;49.52;101783.25;6243981;22;45394;-65
2023/05/30 04:44:06;;;;;;;;;6.75;4.25;;;;;16.33;49.44;101777.47;6245763;22;45514;-65
2023/05/30 04:46:32;;;;;;;;;5.50;4.50;;;;;16.21;49.55;101772.59;6244648;22;45349;-65
2023/05/30 04:49:00;;;;;;;;;4.00;4.00;;;;;16.25;49.85;101785.00;6241282;22;45258;-65
2023/05/30 04:51:26;;;;;;;;;4.00;4.00;;;;;16.22;50.09;101788.69;6245191;22;45274;-65
2023/05/30 04:53:52;;;;;;;;;5.00;5.00;;;;;16.21;49.80;101778.84;6245411;22;45426;-65
2023/05/30 04:56:21;;;;;;;;;5.25;4.50;;;;;16.24;49.83;101794.03;6245990;22;45350;-65
2023/05/30 04:58:48;;;;;;;;;5.25;4.00;;;;;16.14;50.00;101771.06;6245885;22;45272;-65
2023/05/30 05:01:15;;;;;;;;;6.00;4.00;;;;;16.16;49.92;101790.75;6246855;22;45251;-65
2023/05/30 05:03:43;;;;;;;;;5.25;5.00;;;;;16.10;49.89;101790.06;6246828;22;45444;-65
2023/05/30 05:06:10;;;;;;;;;5.00;4.75;;;;;16.09;50.03;101785.59;6246740;22;45365;-65
2023/05/30 05:08:35;;;;;;;;;5.75;3.00;;;;;16.10;50.12;101783.78;6246127;22;45549;-65
2023/05/30 05:11:05;;;;;;;;;7.00;4.00;;;;;16.07;50.22;101786.56;6247587;22;45482;-65
2023/05/30 05:13:31;;;;;;;;;3.25;3.25;;;;;16.09;50.10;101784.72;6246868;22;45552;-65
2023/05/30 05:15:57;;;;;;;;;5.25;3.75;;;;;16.01;50.19;101787.72;6246194;22;46646;-65
2023/05/30 05:18:23;;;;;;;;;4.00;4.00;;;;;16.05;50.15;101793.84;6245626;22;45267;-65
2023/05/30 05:20:49;;;;;;;;;6.00;6.00;;;;;15.96;50.21;101794.22;6246573;22;45283;-65
2023/05/30 05:23:15;;;;;;;;;6.00;4.00;;;;;16.00;50.29;101802.09;6244953;22;45335;-65
2023/05/30 05:25:40;;;;;;;;;3.75;3.25;;;;;16.02;50.58;101810.13;6246378;22;45341;-65
2023/05/30 05:28:06;;;;;;;;;6.00;3.00;;;;;16.03;50.26;101811.88;6246332;22;45312;-65
2023/05/30 05:30:32;;;;;;;;;8.50;8.00;;;;;16.02;50.44;101794.88;6244667;22;45461;-65
2023/05/30 05:32:57;;;;;;;;;9.25;5.50;;;;;16.06;50.41;101801.00;6245867;22;45271;-65
2023/05/30 05:35:22;;;;;;;;;3.00;3.00;;;;;16.14;50.40;101817.75;6243891;22;46340;-65
2023/05/30 05:37:48;;;;;;;;;4.50;4.50;;;;;16.08;50.13;101810.75;6246020;22;45391;-65
2023/05/30 05:40:13;;;;;;;;;4.50;3.00;;;;;16.02;50.51;101802.03;6246780;22;45228;-65
2023/05/30 05:42:39;;;;;;;;;5.25;5.00;;;;;16.06;50.76;101803.69;6246411;22;45561;-66
2023/05/30 05:45:05;;;;;;;;;4.00;4.00;;;;;16.07;50.61;101800.03;6244719;22;46143;-66
2023/05/30 05:47:32;;;;;;;;;5.00;5.00;;;;;16.02;50.37;101794.88;6243916;22;45291;-66
2023/05/30 05:49:57;;;;;;;;;5.75;4.00;;;;;15.97;50.54;101785.19;6245876;22;45323;-66
2023/05/30 05:52:23;;;;;;;;;3.50;3.00;;;;;16.07;50.50;101816.22;6244565;22;45364;-66
2023/05/30 05:54:49;;;;;;;;;5.50;4.00;;;;;16.03;50.65;101812.75;6245540;22;45526;-66
2023/05/30 05:57:14;;;;;;;;;7.00;5.50;;;;;16.01;50.42;101805.69;6244096;22;45436;-66
2023/05/30 05:59:40;;;;;;;;;6.00;4.00;;;;;16.06;50.57;101815.34;6246507;22;45491;-67
2023/05/30 06:02:05;;;;;;;;;7.25;5.50;;;;;16.02;50.32;101802.94;6245666;22;45574;-66
2023/05/30 06:04:31;;;;;;;;;6.25;3.50;;;;;16.02;50.74;101820.88;6244598;22;46216;-66
2023/05/30 06:06:56;;;;;;;;;3.75;3.75;;;;;15.98;50.85;101811.19;6245727;22;45436;-66
2023/05/30 06:09:24;;;;;;;;;11.00;6.75;;;;;16.03;50.91;101811.88;6246095;22;45355;-66
2023/05/30 06:11:49;;;;;;;;;5.25;5.00;;;;;15.95;50.90;101803.22;6245847;22;45477;-66
2023/05/30 06:14:14;;;;;;;;;4.25;3.75;;;;;16.06;50.84;101826.09;6243963;22;45848;-65
2023/05/30 06:16:40;;;;;;;;;5.00;5.00;;;;;16.12;50.81;101830.38;6245470;22;52055;-66
2023/05/30 06:19:05;;;;;;;;;5.25;4.25;;;;;16.05;50.45;101815.38;6246514;22;45221;-66
2023/05/30 06:21:30;;;;;;;;;4.00;3.00;;;;;15.95;50.54;101817.56;6245945;22;45264;-66
2023/05/30 06:23:56;;;;;;;;;6.50;5.00;;;;;15.98;50.70;101822.81;6245933;22;45995;-66
2023/05/30 06:26:21;;;;;;;;;5.00;3.50;;;;;15.96;50.81;101823.84;6245771;22;45263;-66
2023/05/30 06:28:49;;;;;;;;;6.50;5.75;;;;;15.91;50.98;101822.19;6244849;22;45323;-66
2023/05/30 06:31:14;;;;;;;;;5.75;4.00;;;;;15.91;50.75;101827.56;6244402;22;45976;-66
2023/05/30 06:33:39;;;;;;;;;5.25;5.25;;;;;15.95;51.04;101827.44;6245643;22;52851;-66
2023/05/30 06:36:06;;;;;;;;;6.50;4.00;;;;;15.94;51.06;101807.75;6245588;22;46743;-66
2023/05/30 06:38:31;;;;;;;;;7.00;5.00;;;;;16.02;50.44;101816.41;6245567;22;45333;-66
2023/05/30 06:40:57;;;;;;;;;7.75;5.75;;;;;15.98;51.10;101805.81;6241662;22;53981;-66
2023/05/30 06:43:22;;;;;;;;;7.75;4.00;;;;;16.07;51.10;101818.91;6242733;22;45435;-66
2023/05/30 06:45:47;;;;;;;;;6.75;4.25;;;;;16.11;50.76;101807.09;6244374;22;45276;-66
2023/05/30 06:48:13;;;;;;;;;6.25;5.75;;;;;16.14;50.65;101798.00;6243190;22;45311;-66
2023/05/30 06:50:38;;;;;;;;;5.00;4.25;;;;;16.22;50.45;101823.72;6241841;22;56684;-66
2023/05/30 06:53:03;;;;;;;;;6.25;4.75;;;;;16.24;50.55;101821.84;6243144;22;46166;-66
2023/05/30 06:55:29;;;;;;;;;5.50;5.00;;;;;16.28;50.52;101826.16;6242603;22;54218;-66
2023/05/30 06:57:54;;;;;;;;;4.25;4.25;;;;;16.27;50.22;101812.75;6240050;22;45646;-66
2023/05/30 07:00:21;;;;;;;;;5.00;5.00;;;;;16.25;50.32;101817.31;6242030;22;45719;-66
2023/05/30 07:02:46;;;;;;;;;6.25;5.00;;;;;16.32;50.17;101829.59;6244217;22;46416;-66
2023/05/30 07:05:12;;;;;;;;;4.00;4.00;;;;;16.29;50.05;101825.22;6245836;22;45271;-66
2023/05/30 07:07:39;;;;;;;;;7.50;4.75;;;;;16.24;50.47;101816.44;6245514;22;45454;-66
2023/05/30 07:10:08;;;;;;;;;6.50;4.50;;;;;16.26;50.55;101814.56;6243804;22;45591;-66
2023/05/30 07:12:34;;;;;;;;;6.50;5.00;;;;;16.28;50.19;101818.06;6241081;22;47425;-66
2023/05/30 07:14:59;;;;;;;;;2.75;2.75;;;;;16.37;50.28;101832.13;6243362;22;45666;-66
2023/05/30 07:17:25;;;;;;;;;5.25;5.25;;;;;16.37;50.16;101829.44;6244706;22;45431;-66
2023/05/30 07:19:50;;;;;;;;;7.25;5.00;;;;;16.27;50.22;101805.56;6245746;22;45313;-66
2023/05/30 07:22:16;;;;;;;;;6.00;5.75;;;;;16.36;50.02;101819.59;6245031;22;45980;-66
2023/05/30 07:24:42;;;;;;;;;10.00;7.25;;;;;16.40;50.23;101829.31;6243625;22;45264;-66
2023/05/30 07:27:07;;;;;;;;;7.25;5.00;;;;;16.48;50.44;101832.59;6242684;22;45365;-66
2023/05/30 07:29:32;;;;;;;;;6.50;5.25;;;;;16.51;50.65;101818.13;6245333;22;45499;-65
2023/05/30 07:31:58;;;;;;;;;7.75;5.00;;;;;16.57;49.95;101821.44;6237684;22;46161;-65
2023/05/30 07:34:23;;;;;;;;;10.00;6.50;;;;;16.62;49.87;101832.00;6243164;22;45747;-66
2023/05/30 07:36:48;;;;;;;;;5.75;5.75;;;;;16.61;50.02;101827.59;6243915;22;45309;-66
2023/05/30 07:39:14;;;;;;;;;5.25;4.50;;;;;16.65;50.09;101831.91;6242436;22;45327;-65
2023/05/30 07:41:39;;;;;;;;;7.50;5.50;;;;;16.71;50.29;101826.28;6243991;22;45774;-66
2023/05/30 07:44:04;;;;;;;;;6.00;6.00;;;;;16.80;50.08;101822.31;6243620;22;45248;-66
2023/05/30 07:46:30;;;;;;;;;5.25;4.25;;;;;16.89;49.87;101821.97;6244229;22;45392;-66
2023/05/30 07:48:55;;;;;;;;;5.25;5.00;;;;;16.94;50.02;101832.53;6242257;22;45473;-66
2023/05/30 07:51:22;;;;;;;;;6.75;5.00;;;;;16.87;49.75;101810.34;6244199;22;45324;-65
2023/05/30 07:53:47;;;;;;;;;6.50;4.00;;;;;17.01;50.06;101828.66;6243796;22;45599;-66
2023/05/30 07:56:12;;;;;;;;;6.75;5.75;;;;;17.10;49.78;101832.78;6243738;22;45267;-66
2023/05/30 07:58:38;;;;;;;;;8.25;4.50;;;;;17.07;49.51;101814.91;6243517;22;57641;-66
2023/05/30 08:01:05;;;;;;;;;7.00;4.25;;;;;17.25;49.46;101832.13;6243242;22;49436;-66
2023/05/30 08:03:30;;;;;;;;;7.75;5.75;;;;;17.31;49.48;101842.66;6243648;22;45574;-66
2023/05/30 08:05:56;;;;;;;;;5.25;5.00;;;;;17.32;49.86;101828.22;6242935;22;45354;-66
2023/05/30 08:08:21;;;;;;;;;8.00;6.00;;;;;17.49;49.87;101835.59;6240731;22;45323;-66
2023/05/30 08:10:46;;;;;;;;;4.75;4.75;;;;;17.57;49.70;101830.75;6243220;22;45505;-66
2023/05/30 08:13:14;;;;;;;;;6.75;4.75;;;;;17.71;48.97;101840.03;6244032;22;45455;-66
2023/05/30 08:15:39;;;;;;;;;7.75;4.75;;;;;17.73;49.01;101841.72;6244603;22;45551;-66
2023/05/30 08:18:04;;;;;;;;;3.00;3.00;;;;;17.82;49.14;101839.53;6243376;22;45473;-66
2023/05/30 08:20:30;;;;;;;;;7.00;6.00;;;;;17.90;49.06;101845.50;6241981;22;47207;-66
2023/05/30 08:22:55;;;;;;;;;6.00;5.25;;;;;17.75;48.38;101815.50;6243630;22;45346;-65
2023/05/30 08:25:24;;;;;;;;;6.00;5.25;;;;;18.00;48.73;101845.97;6243207;22;45351;-65
2023/05/30 08:27:51;;;;;;;;;4.50;4.50;;;;;18.01;48.46;101831.50;6243628;22;54756;-65
2023/05/30 08:30:16;;;;;;;;;4.50;4.50;;;;;18.14;48.56;101838.09;6245563;22;45287;-65
2023/05/30 08:32:42;;;;;;;;;5.00;5.00;;;;;18.01;48.17;101808.09;6242980;22;45273;-66
2023/05/30 08:35:08;;;;;;;;;5.00;4.25;;;;;18.07;48.59;101806.91;6246819;22;45189;-66
2023/05/30 08:37:33;;;;;;;;;6.75;4.50;;;;;18.11;48.63;101789.63;6245475;22;45390;-65
2023/05/30 08:39:59;;;;;;;;;5.50;4.00;;;;;18.39;47.99;101832.38;6245485;22;46222;-66
2023/05/30 08:42:25;;;;;;;;;9.25;5.50;;;;;18.52;48.07;101841.66;6246359;22;45471;-66
2023/05/30 08:44:51;;;;;;;;;4.00;4.00;;;;;18.56;47.66;101844.22;6247183;22;45397;-66
2023/05/30 08:47:16;;;;;;;;;5.25;2.00;;;;;18.57;47.75;101825.22;6243930;22;45369;-66
2023/05/30 08:49:43;;;;;;;;;4.25;3.75;;;;;18.58;48.10;101820.72;6245346;22;45377;-66
2023/05/30 08:52:15;;;;;;;;;5.50;5.50;;;;;18.74;48.05;101828.94;6240844;22;45674;-66
2023/05/30 08:54:51;;;;;;;;;2.75;2.75;;;;;18.76;47.87;101830.63;6244485;22;45378;-66
2023/05/30 08:57:34;;;;;;;;;4.50;3.75;;;;;18.78;48.13;101817.91;6244553;22;45442;-66
2023/05/30 09:00:00;;;;;;;;;6.25;6.00;;;;;18.89;47.95;101822.78;6244081;22;46492;-66
2023/05/30 09:02:28;;;;;;;;;9.50;6.50;;;;;18.84;47.66;101811.31;6245071;22;45597;-66
2023/05/30 09:04:57;;;;;;;;;6.75;3.75;;;;;18.86;47.90;101813.00;6244301;22;45371;-67
2023/05/30 09:07:24;;;;;;;;;5.25;4.50;;;;;18.86;47.38;101815.72;6243135;22;45645;-66
2023/05/30 09:09:50;;;;;;;;;5.25;4.25;;;;;18.87;47.63;101808.47;6245541;22;45664;-67
2023/05/30 09:12:16;;;;;;;;;9.50;5.00;;;;;18.99;47.64;101820.50;6245965;22;45418;-66
2023/05/30 09:14:41;;;;;;;;;4.75;4.00;;;;;18.88;47.93;101791.28;6246288;22;45377;-66
2023/05/30 09:17:07;;;;;;;;;5.50;5.00;;;;;19.12;47.72;101824.31;6244698;22;45301;-66
2023/05/30 09:19:35;;;;;;;;;5.00;4.00;;;;;19.12;47.62;101813.50;6246041;22;46120;-66
2023/05/30 09:22:00;;;;;;;;;9.00;6.50;;;;;19.18;47.55;101813.19;6231356;22;45333;-66
2023/05/30 09:24:56;;;;;;;;;3.50;3.50;;;;;19.30;47.74;101813.53;6244532;22;45238;-66
2023/05/30 09:27:22;;;;;;;;;5.00;5.00;;;;;19.36;47.52;101818.59;6243283;22;45278;-66
2023/05/30 09:29:48;;;;;;;;;5.75;3.75;;;;;19.37;47.07;101809.53;6244950;22;46033;-66
2023/05/30 09:32:13;;;;;;;;;4.00;4.00;;;;;19.43;47.05;101814.63;6244909;22;45846;-66
2023/05/30 09:34:39;;;;;;;;;4.75;3.75;;;;;19.43;47.24;101807.38;6242891;22;45687;-66
2023/05/30 09:37:05;;;;;;;;;8.50;5.00;;;;;19.51;47.11;101806.97;6243961;22;45484;-66
2023/05/30 09:39:32;;;;;;;;;5.00;4.00;;;;;19.56;47.13;101806.72;6242073;22;46697;-66
2023/05/30 09:41:58;;;;;;;;;5.25;5.00;;;;;19.58;46.90;101808.41;6244243;22;45318;-66
2023/05/30 09:44:23;;;;;;;;;7.25;6.00;;;;;19.55;47.07;101797.72;6244546;22;45468;-66
2023/05/30 09:46:56;;;;;;;;;8.25;4.25;;;;;19.65;46.88;101808.94;6243960;22;45372;-66
2023/05/30 09:49:22;;;;;;;;;6.50;4.25;;;;;19.64;46.81;101804.47;6241021;22;47182;-66
2023/05/30 09:51:50;;;;;;;;;5.75;4.25;;;;;19.69;47.12;101796.09;6241185;22;45505;-66
2023/05/30 09:54:15;;;;;;;;;4.75;4.25;;;;;19.62;46.84;101793.72;6243617;22;45580;-67
2023/05/30 09:56:42;;;;;;;;;3.25;3.25;;;;;19.75;46.50;101806.66;6239976;22;45286;-64
2023/05/30 09:59:13;;;;;;;;;4.75;4.50;;;;;19.76;46.43;101794.84;6243619;22;45692;-66
2023/05/30 10:01:42;;;;;;;;;7.25;3.00;;;;;19.85;46.91;101807.91;6243514;22;45567;-67
2023/05/30 10:04:24;;;;;;;;;5.00;4.25;;;;;19.88;46.63;101810.44;6245386;22;45637;-66
2023/05/30 10:06:52;;;;;;;;;4.50;3.75;;;;;19.97;46.67;101811.75;6242260;22;45662;-67
2023/05/30 10:09:22;;;;;;;;;4.25;4.25;;;;;19.99;46.51;101810.72;6241896;22;45964;-66
2023/05/30 10:11:49;;;;;;;;;5.50;5.00;;;;;20.03;46.64;101810.53;6245570;22;45510;-67
2023/05/30 10:14:14;;;;;;;;;4.00;4.00;;;;;20.05;46.61;101806.81;6241975;22;45280;-66
2023/05/30 10:17:03;;;;;;;;;5.75;4.50;;;;;20.11;46.49;101813.72;6243130;22;45311;-67
2023/05/30 10:19:37;;;;;;;;;6.50;3.25;;;;;20.15;46.31;101804.47;6242291;22;46320;-66
2023/05/30 10:22:06;;;;;;;;;4.00;3.00;;;;;20.16;46.46;101789.91;6244536;22;45584;-66
2023/05/30 10:24:33;;;;;;;;;5.00;4.50;;;;;20.24;46.37;101803.94;6243475;22;45612;-66
2023/05/30 10:27:03;;;;;;;;;6.00;4.75;;;;;20.21;46.46;101789.66;6242108;22;45361;-67
2023/05/30 10:29:36;;;;;;;;;5.75;4.25;;;;;20.27;45.54;101792.91;6243695;22;45871;-66
2023/05/30 10:32:05;;;;;;;;;5.50;2.75;;;;;20.32;46.06;101803.50;6241196;22;45375;-67
2023/05/30 10:34:42;;;;;;;;;5.00;4.75;;;;;20.34;46.12;101802.44;6244613;22;45464;-66
2023/05/30 10:37:08;;;;;;;;;5.75;4.00;;;;;20.42;46.30;101801.16;6242649;22;45634;-66
2023/05/30 10:39:59;;;;;;;;;8.25;5.00;;;;;20.46;46.26;101798.16;6240945;22;46362;-66
2023/05/30 10:42:40;;;;;;;;;6.00;3.50;;;;;20.48;45.98;101782.69;6245047;22;45585;-66
2023/05/30 10:45:17;;;;;;;;;4.00;3.00;;;;;20.57;45.79;101794.84;6245135;22;45342;-66
2023/05/30 10:47:58;;;;;;;;;5.00;4.00;;;;;20.61;45.49;101784.69;6244038;22;45423;-66
2023/05/30 10:50:37;;;;;;;;;3.75;3.25;;;;;20.72;45.85;101785.84;6242434;22;45335;-67
2023/05/30 10:53:12;;;;;;;;;5.25;4.50;;;;;20.69;45.96;101769.72;6235286;22;45757;-66
2023/05/30 10:55:37;;;;;;;;;7.00;5.00;;;;;20.88;45.57;101780.38;6244136;22;45437;-66
2023/05/30 10:58:50;;;;;;;;;7.00;6.75;;;;;20.87;45.56;101766.91;6241715;22;52185;-66
2023/05/30 11:01:29;;;;;;;;;6.00;5.25;;;;;20.95;44.99;101780.00;6239694;22;46715;-67
2023/05/30 11:04:15;;;;;;;;;5.00;5.00;;;;;20.96;44.85;101766.34;6244831;22;45353;-66
2023/05/30 11:06:42;;;;;;;;;4.75;4.50;;;;;21.02;44.83;101773.25;6244065;22;45434;-66
2023/05/30 11:09:14;;;;;;;;;7.00;7.00;;;;;21.05;44.92;101765.81;6244988;22;45362;-66
2023/05/30 11:11:41;;;;;;;;;7.50;5.00;;;;;21.03;44.79;101756.88;6244152;22;45433;-66
2023/05/30 11:14:10;;;;;;;;;6.00;4.00;;;;;21.07;44.56;101749.41;6245447;22;45544;-67
2023/05/30 11:16:54;;;;;;;;;5.25;3.00;;;;;21.09;44.48;101753.78;6243763;22;45516;-67
2023/05/30 11:19:24;;;;;;;;;3.00;3.00;;;;;21.09;44.65;101744.75;6242987;22;45741;-67
2023/05/30 11:22:00;;;;;;;;;7.75;5.50;;;;;21.25;44.58;101752.81;6245159;22;45480;-66
2023/05/30 11:24:27;;;;;;;;;5.00;4.50;;;;;21.25;44.21;101750.13;6242127;22;45705;-66
2023/05/30 11:26:55;;;;;;;;;4.00;3.75;;;;;21.37;44.32;101753.94;6244707;22;45653;-66